createdAt,value
2019-03-30T00:01:53.227Z,39.03
2019-03-30T00:04:21.712Z,38.87
2019-03-30T00:06:50.166Z,42.90
2019-03-30T00:09:18.627Z,42.37
2019-03-30T00:11:47.145Z,47.57
2019-03-30T00:14:15.702Z,42.20
2019-03-30T00:16:44.219Z,40.57
2019-03-30T00:19:12.702Z,39.10
2019-03-30T00:21:41.142Z,43.30
2019-03-30T00:24:09.620Z,41.67
2019-03-30T00:26:38.109Z,40.70
2019-03-30T00:29:06.765Z,42.20
2019-03-30T00:31:35.269Z,41.63
2019-03-30T00:34:03.964Z,45.93
2019-03-30T00:36:32.426Z,45.43
2019-03-30T00:39:00.870Z,44.30
2019-03-30T00:41:29.337Z,38.50
2019-03-30T00:43:57.813Z,44.50
2019-03-30T00:46:26.259Z,46.13
2019-03-30T00:48:54.739Z,43.23
2019-03-30T00:51:23.185Z,41.67
2019-03-30T00:53:51.659Z,44.57
2019-03-30T00:56:20.147Z,40.83
2019-03-30T00:58:48.596Z,39.37
2019-03-30T01:01:17.180Z,43.40
2019-03-30T01:03:45.651Z,35.80
2019-03-30T01:06:14.171Z,36.67
2019-03-30T01:08:42.645Z,36.37
2019-03-30T01:11:11.090Z,37.00
2019-03-30T01:13:39.574Z,42.93
2019-03-30T01:16:08.082Z,37.37
2019-03-30T01:18:36.557Z,36.17
2019-03-30T01:21:05.071Z,38.50
2019-03-30T01:23:33.539Z,37.80
2019-03-30T01:26:02.076Z,34.77
2019-03-30T01:28:30.594Z,38.30
2019-03-30T01:30:59.128Z,38.93
2019-03-30T01:33:27.585Z,39.70
2019-03-30T01:35:56.040Z,41.37
2019-03-30T01:38:24.524Z,40.77
2019-03-30T01:40:52.970Z,46.53
2019-03-30T01:43:21.430Z,41.80
2019-03-30T01:45:49.903Z,39.93
2019-03-30T01:48:18.363Z,52.60
2019-03-30T01:50:47.751Z,42.23
2019-03-30T01:53:16.205Z,39.53
2019-03-30T01:55:44.691Z,40.87
2019-03-30T01:58:13.130Z,37.00
2019-03-30T02:00:41.678Z,37.07
2019-03-30T02:03:10.212Z,43.63
2019-03-30T02:05:38.675Z,42.53
2019-03-30T02:08:07.123Z,42.83
2019-03-30T02:10:40.182Z,40.70
2019-03-30T02:13:08.647Z,40.13
2019-03-30T02:15:37.157Z,42.17
2019-03-30T02:18:05.713Z,40.43
2019-03-30T02:20:40.197Z,40.27
2019-03-30T02:23:08.783Z,42.50
2019-03-30T02:25:37.323Z,41.13
2019-03-30T02:28:07.129Z,46.67
2019-03-30T02:30:36.211Z,38.47
2019-03-30T02:33:04.747Z,37.17
2019-03-30T02:35:33.187Z,36.27
2019-03-30T02:38:01.672Z,42.30
2019-03-30T02:40:30.394Z,38.60
2019-03-30T02:42:58.847Z,43.20
2019-03-30T02:45:27.304Z,42.73
2019-03-30T02:47:55.770Z,41.07
2019-03-30T02:50:24.280Z,43.90
2019-03-30T02:52:52.756Z,44.20
2019-03-30T02:55:21.230Z,43.50
2019-03-30T02:57:49.711Z,43.97
2019-03-30T03:00:18.944Z,41.63
2019-03-30T03:02:47.494Z,39.57
2019-03-30T03:05:16.181Z,40.17
2019-03-30T03:07:44.662Z,44.77
2019-03-30T03:10:13.644Z,43.60
2019-03-30T03:12:42.114Z,44.07
2019-03-30T03:15:11.339Z,44.13
2019-03-30T03:17:39.860Z,42.87
2019-03-30T03:20:08.516Z,43.50
2019-03-30T03:22:36.994Z,42.60
2019-03-30T03:25:07.012Z,50.67
2019-03-30T03:27:35.475Z,50.53
2019-03-30T03:30:05.069Z,46.97
2019-03-30T03:32:33.607Z,49.57
2019-03-30T03:35:02.238Z,46.67
2019-03-30T03:37:44.601Z,50.07
2019-03-30T03:40:01.045Z,55.33
2019-03-30T03:42:29.592Z,51.53
2019-03-30T03:44:58.108Z,50.73
2019-03-30T03:47:26.582Z,49.53
2019-03-30T03:49:55.125Z,50.77
2019-03-30T03:52:23.709Z,51.67
2019-03-30T03:54:53.312Z,49.43
2019-03-30T03:57:23.336Z,49.47
2019-03-30T03:59:53.452Z,46.57
2019-03-30T04:02:25.234Z,51.07
2019-03-30T04:04:55.634Z,52.87
2019-03-30T04:07:24.727Z,47.60
2019-03-30T04:09:56.251Z,55.37
2019-03-30T04:12:25.648Z,52.13
2019-03-30T04:14:54.267Z,55.10
2019-03-30T04:17:22.919Z,53.07
2019-03-30T04:19:51.417Z,54.77
2019-03-30T04:22:19.942Z,55.27
2019-03-30T04:24:48.491Z,52.90
2019-03-30T04:27:16.928Z,53.43
2019-03-30T04:29:45.405Z,46.17
2019-03-30T04:32:13.951Z,50.27
2019-03-30T04:34:42.420Z,53.33
2019-03-30T04:37:10.899Z,47.83
2019-03-30T04:39:39.368Z,48.37
2019-03-30T04:42:07.811Z,49.13
2019-03-30T04:44:36.279Z,49.83
2019-03-30T04:47:04.719Z,45.97
2019-03-30T04:49:33.208Z,47.03
2019-03-30T04:52:01.667Z,47.50
2019-03-30T04:54:30.107Z,46.90
2019-03-30T04:56:58.576Z,48.23
2019-03-30T04:59:27.019Z,48.13
2019-03-30T05:01:55.486Z,47.63
2019-03-30T05:04:23.936Z,46.93
2019-03-30T05:06:52.379Z,51.07
2019-03-30T05:09:20.855Z,38.33
2019-03-30T05:11:49.330Z,41.57
2019-03-30T05:14:17.786Z,44.57
2019-03-30T05:16:46.272Z,42.00
2019-03-30T05:19:14.739Z,41.30
2019-03-30T05:21:43.229Z,37.77
2019-03-30T05:24:11.817Z,37.90
2019-03-30T05:26:40.257Z,36.60
2019-03-30T05:29:08.734Z,35.80
2019-03-30T05:31:37.212Z,41.63
2019-03-30T05:34:05.679Z,41.07
2019-03-30T05:36:34.314Z,42.20
2019-03-30T05:39:02.774Z,39.37
2019-03-30T05:41:31.243Z,37.40
2019-03-30T05:43:59.765Z,41.77
2019-03-30T05:46:28.240Z,38.73
2019-03-30T05:48:56.697Z,41.10
2019-03-30T05:51:25.168Z,40.63
2019-03-30T05:53:53.644Z,38.97
2019-03-30T05:56:22.091Z,41.30
2019-03-30T05:58:50.565Z,45.40
2019-03-30T06:01:19.038Z,42.13
2019-03-30T06:03:47.490Z,38.40
2019-03-30T06:06:15.958Z,38.07
2019-03-30T06:08:44.430Z,38.83
2019-03-30T06:11:12.867Z,40.47
2019-03-30T06:13:41.622Z,34.80
2019-03-30T06:16:10.054Z,39.47
2019-03-30T06:18:38.531Z,37.00
2019-03-30T06:21:07.007Z,36.60
2019-03-30T06:23:35.447Z,35.87
2019-03-30T06:26:04.002Z,36.00
2019-03-30T06:28:32.537Z,37.70
2019-03-30T06:31:01.024Z,38.17
2019-03-30T06:33:29.475Z,32.50
2019-03-30T06:35:57.942Z,36.83
2019-03-30T06:38:26.417Z,33.73
2019-03-30T06:40:54.903Z,34.43
2019-03-30T06:43:23.351Z,33.70
2019-03-30T06:45:51.822Z,30.97
2019-03-30T06:48:20.278Z,32.50
2019-03-30T06:50:48.739Z,34.20
2019-03-30T06:53:17.210Z,36.47
2019-03-30T06:55:45.696Z,32.73
2019-03-30T06:58:14.179Z,30.70
2019-03-30T07:00:42.795Z,35.40
2019-03-30T07:03:11.277Z,29.83
2019-03-30T07:05:40.997Z,31.43
2019-03-30T07:08:14.771Z,29.30
2019-03-30T07:10:45.360Z,29.27
2019-03-30T07:13:14.560Z,31.33
2019-03-30T07:15:46.976Z,29.17
2019-03-30T07:18:16.251Z,29.77
2019-03-30T07:20:44.686Z,32.87
2019-03-30T07:23:13.991Z,28.50
2019-03-30T07:25:42.440Z,29.10
2019-03-30T07:28:10.910Z,29.07
2019-03-30T07:30:39.440Z,28.23
2019-03-30T07:33:07.923Z,29.73
2019-03-30T07:35:36.368Z,31.90
2019-03-30T07:38:04.910Z,31.40
2019-03-30T07:40:33.995Z,27.80
2019-03-30T07:43:02.795Z,29.20
2019-03-30T07:45:31.243Z,30.47
2019-03-30T07:47:59.733Z,26.10
2019-03-30T07:50:28.182Z,27.40
2019-03-30T07:52:56.629Z,30.20
2019-03-30T07:55:25.112Z,27.53
2019-03-30T07:57:53.580Z,24.97
2019-03-30T08:00:22.177Z,28.73
2019-03-30T08:02:50.623Z,24.57
2019-03-30T08:05:19.183Z,27.93
2019-03-30T08:07:47.734Z,26.63
2019-03-30T08:10:16.761Z,23.47
2019-03-30T08:12:45.331Z,31.27
2019-03-30T08:15:14.822Z,24.60
2019-03-30T08:17:43.307Z,25.23
2019-03-30T08:20:12.022Z,25.60
2019-03-30T08:22:40.475Z,25.50
2019-03-30T08:25:09.019Z,23.17
2019-03-30T08:27:37.565Z,24.17
2019-03-30T08:30:07.059Z,25.00
2019-03-30T08:32:35.554Z,28.37
2019-03-30T08:35:04.783Z,24.07
2019-03-30T08:37:33.226Z,23.20
2019-03-30T08:40:01.675Z,24.47
2019-03-30T08:42:30.146Z,27.67
2019-03-30T08:44:58.632Z,23.30
2019-03-30T08:47:27.074Z,24.73
2019-03-30T08:49:55.549Z,23.10
2019-03-30T08:52:24.019Z,24.20
2019-03-30T08:54:52.490Z,24.90
2019-03-30T08:57:20.957Z,24.87
2019-03-30T08:59:55.302Z,27.17
2019-03-30T09:02:23.779Z,24.03
2019-03-30T09:04:52.228Z,25.93
2019-03-30T09:07:20.714Z,23.80
2019-03-30T09:09:49.219Z,24.37
2019-03-30T09:12:17.695Z,23.92
2019-03-30T09:14:46.219Z,26.00
2019-03-30T09:17:14.747Z,24.53
2019-03-30T09:19:43.210Z,20.88
2019-03-30T09:22:11.662Z,27.87
2019-03-30T09:24:40.148Z,23.57
2019-03-30T09:27:08.623Z,22.35
2019-03-30T09:29:37.067Z,25.17
2019-03-30T09:32:14.309Z,24.10
2019-03-30T09:34:35.789Z,23.83
2019-03-30T09:37:04.322Z,24.00
2019-03-30T09:39:32.782Z,24.47
2019-03-30T09:42:01.252Z,22.95
2019-03-30T09:44:29.713Z,25.68
2019-03-30T09:46:58.190Z,26.75
2019-03-30T09:49:26.648Z,24.63
2019-03-30T09:51:55.198Z,23.70
2019-03-30T09:54:24.271Z,23.55
2019-03-30T09:56:52.912Z,25.72
2019-03-30T09:59:21.399Z,22.82
2019-03-30T10:01:50.218Z,22.62
2019-03-30T10:04:18.700Z,23.62
2019-03-30T10:06:47.163Z,23.32
2019-03-30T10:09:15.642Z,23.75
2019-03-30T10:11:44.099Z,24.12
2019-03-30T10:14:12.583Z,21.82
2019-03-30T10:16:41.031Z,22.62
2019-03-30T10:19:09.504Z,25.95
2019-03-30T10:21:37.988Z,24.50
2019-03-30T10:24:06.449Z,27.02
2019-03-30T10:26:34.915Z,23.25
2019-03-30T10:29:03.513Z,24.45
2019-03-30T10:31:31.984Z,22.55
2019-03-30T10:34:00.431Z,24.47
2019-03-30T10:36:28.917Z,22.40
2019-03-30T10:38:57.366Z,25.70
2019-03-30T10:41:25.874Z,22.20
2019-03-30T10:43:54.342Z,23.38
2019-03-30T10:46:22.795Z,23.52
2019-03-30T10:48:51.275Z,20.80
2019-03-30T10:51:19.760Z,23.47
2019-03-30T10:53:48.239Z,24.25
2019-03-30T10:56:16.680Z,22.22
2019-03-30T10:58:45.119Z,23.12
2019-03-30T11:01:13.660Z,22.45
2019-03-30T11:03:42.127Z,23.98
2019-03-30T11:06:11.197Z,27.25
2019-03-30T11:08:39.649Z,22.25
2019-03-30T11:11:08.228Z,24.27
2019-03-30T11:13:36.706Z,24.67
2019-03-30T11:16:05.145Z,23.27
2019-03-30T11:18:33.617Z,24.07
2019-03-30T11:21:02.078Z,21.55
2019-03-30T11:23:30.815Z,20.80
2019-03-30T11:25:59.263Z,22.77
2019-03-30T11:28:27.735Z,22.58
2019-03-30T11:30:56.205Z,26.07
2019-03-30T11:33:24.669Z,25.30
2019-03-30T11:35:53.222Z,25.77
2019-03-30T11:38:21.769Z,25.17
2019-03-30T11:40:50.249Z,86.60
2019-03-30T11:43:18.691Z,21.00
2019-03-30T11:45:47.247Z,23.57
2019-03-30T11:48:15.693Z,22.65
2019-03-30T11:50:44.155Z,21.50
2019-03-30T11:53:12.598Z,24.50
2019-03-30T11:55:41.081Z,21.90
2019-03-30T11:58:09.532Z,26.42
2019-03-30T12:00:38.079Z,22.90
2019-03-30T12:03:06.522Z,23.98
2019-03-30T12:05:35.028Z,23.18
2019-03-30T12:08:03.607Z,24.25
2019-03-30T12:10:32.141Z,20.88
2019-03-30T12:13:00.630Z,27.02
2019-03-30T12:15:29.160Z,21.93
2019-03-30T12:17:57.646Z,32.78
2019-03-30T12:20:26.098Z,41.83
2019-03-30T12:22:54.652Z,23.65
2019-03-30T12:25:34.904Z,23.15
2019-03-30T12:27:53.507Z,26.02
2019-03-30T12:30:22.003Z,25.92
2019-03-30T12:32:50.503Z,24.92
2019-03-30T12:35:18.942Z,20.15
2019-03-30T12:37:47.392Z,26.55
2019-03-30T12:40:16.211Z,22.40
2019-03-30T12:42:44.662Z,21.33
2019-03-30T12:45:14.087Z,24.90
2019-03-30T12:47:42.566Z,25.00
2019-03-30T12:50:11.285Z,22.13
2019-03-30T12:52:39.884Z,23.85
2019-03-30T12:55:08.569Z,20.20
2019-03-30T12:57:37.031Z,25.10
2019-03-30T13:00:07.637Z,27.80
2019-03-30T13:02:36.114Z,24.30
2019-03-30T13:05:07.447Z,19.57
2019-03-30T13:07:35.843Z,22.30
2019-03-30T13:10:05.932Z,22.02
2019-03-30T13:12:35.068Z,18.85
2019-03-30T13:15:04.462Z,22.95
2019-03-30T13:17:32.954Z,21.77
2019-03-30T13:20:01.437Z,20.52
2019-03-30T13:22:29.995Z,21.40
2019-03-30T13:24:58.487Z,22.95
2019-03-30T13:27:26.953Z,23.22
2019-03-30T13:29:55.434Z,27.82
2019-03-30T13:32:23.883Z,22.93
2019-03-30T13:34:52.360Z,20.17
2019-03-30T13:37:21.148Z,19.17
2019-03-30T13:39:49.623Z,25.62
2019-03-30T13:42:18.181Z,26.10
2019-03-30T13:44:46.721Z,24.98
2019-03-30T13:47:15.194Z,27.93
2019-03-30T13:49:43.679Z,22.07
2019-03-30T13:52:12.485Z,21.82
2019-03-30T13:54:40.947Z,25.45
2019-03-30T13:57:10.078Z,24.65
2019-03-30T13:59:38.571Z,22.77
2019-03-30T14:02:07.157Z,20.65
2019-03-30T14:04:35.636Z,18.85
2019-03-30T14:07:04.067Z,20.88
2019-03-30T14:09:32.548Z,22.70
2019-03-30T14:12:01.024Z,21.55
2019-03-30T14:14:29.475Z,21.90
2019-03-30T14:16:57.967Z,20.05
2019-03-30T14:19:26.407Z,21.93
2019-03-30T14:21:54.872Z,23.85
2019-03-30T14:24:23.315Z,20.55
2019-03-30T14:26:51.866Z,17.52
2019-03-30T14:29:20.323Z,18.98
2019-03-30T14:31:48.825Z,20.62
2019-03-30T14:34:17.263Z,21.93
2019-03-30T14:36:45.743Z,20.92
2019-03-30T14:39:14.185Z,19.77
2019-03-30T14:41:42.656Z,24.43
2019-03-30T14:44:11.131Z,19.05
2019-03-30T14:46:39.611Z,19.67
2019-03-30T14:49:08.057Z,19.70
2019-03-30T14:51:36.550Z,19.67
2019-03-30T14:54:05.381Z,20.30
2019-03-30T14:56:44.830Z,19.35
2019-03-30T14:59:10.180Z,18.35
2019-03-30T15:01:37.111Z,18.85
2019-03-30T15:04:05.708Z,21.68
2019-03-30T15:06:34.264Z,16.90
2019-03-30T15:09:02.728Z,19.32
2019-03-30T15:11:31.207Z,22.80
2019-03-30T15:13:59.699Z,21.02
2019-03-30T15:16:28.151Z,17.75
2019-03-30T15:18:56.622Z,27.52
2019-03-30T15:21:25.083Z,20.50
2019-03-30T15:23:53.563Z,18.82
2019-03-30T15:26:22.327Z,19.92
2019-03-30T15:28:50.871Z,19.48
2019-03-30T15:31:19.438Z,19.90
2019-03-30T15:33:47.871Z,21.68
2019-03-30T15:36:16.345Z,21.97
2019-03-30T15:38:44.803Z,20.23
2019-03-30T15:41:13.342Z,21.17
2019-03-30T15:43:41.786Z,17.50
2019-03-30T15:46:10.420Z,21.00
2019-03-30T15:48:38.896Z,19.10
2019-03-30T15:51:07.379Z,20.92
2019-03-30T15:53:35.831Z,19.50
2019-03-30T15:56:04.412Z,18.20
2019-03-30T15:58:32.884Z,19.67
2019-03-30T16:01:01.809Z,22.37
2019-03-30T16:03:30.279Z,21.62
2019-03-30T16:05:58.727Z,20.95
2019-03-30T16:08:29.392Z,20.52
2019-03-30T16:10:57.821Z,21.50
2019-03-30T16:13:26.388Z,18.80
2019-03-30T16:15:54.859Z,17.07
2019-03-30T16:18:23.349Z,16.23
2019-03-30T16:20:51.922Z,17.45
2019-03-30T16:23:20.367Z,18.45
2019-03-30T16:25:48.843Z,18.60
2019-03-30T16:28:17.355Z,20.60
2019-03-30T16:30:45.903Z,18.65
2019-03-30T16:33:14.379Z,20.37
2019-03-30T16:35:42.863Z,20.55
2019-03-30T16:38:11.324Z,21.12
2019-03-30T16:40:39.795Z,18.73
2019-03-30T16:43:08.708Z,19.42
2019-03-30T16:45:37.320Z,21.95
2019-03-30T16:48:05.888Z,22.82
2019-03-30T16:50:34.778Z,18.57
2019-03-30T16:53:03.265Z,20.02
2019-03-30T16:55:31.791Z,19.52
2019-03-30T16:58:00.303Z,20.43
2019-03-30T17:00:33.395Z,21.55
2019-03-30T17:03:03.722Z,19.87
2019-03-30T17:05:32.168Z,20.60
2019-03-30T17:08:00.624Z,19.85
2019-03-30T17:10:29.190Z,21.37
2019-03-30T17:12:57.638Z,17.57
2019-03-30T17:15:26.094Z,20.10
2019-03-30T17:17:54.576Z,19.02
2019-03-30T17:20:23.038Z,19.05
2019-03-30T17:22:51.516Z,21.27
2019-03-30T17:25:19.970Z,20.00
2019-03-30T17:27:58.276Z,20.77
2019-03-30T17:30:18.608Z,22.27
2019-03-30T17:32:47.112Z,23.02
2019-03-30T17:35:15.555Z,26.23
2019-03-30T17:37:44.015Z,22.45
2019-03-30T17:40:12.829Z,24.05
2019-03-30T17:42:41.277Z,22.60
2019-03-30T17:45:10.510Z,25.00
2019-03-30T17:47:39.020Z,23.87
2019-03-30T17:50:08.819Z,22.85
2019-03-30T17:52:37.334Z,25.70
2019-03-30T17:55:06.247Z,26.02
2019-03-30T17:57:34.726Z,28.87
2019-03-30T18:00:07.876Z,27.35
2019-03-30T18:02:34.893Z,24.43
2019-03-30T18:05:03.519Z,22.50
2019-03-30T18:07:31.987Z,23.90
2019-03-30T18:10:03.212Z,24.15
2019-03-30T18:12:30.639Z,22.77
2019-03-30T18:14:59.107Z,24.43
2019-03-30T18:17:27.563Z,21.85
2019-03-30T18:19:56.040Z,26.55
2019-03-30T18:22:24.491Z,22.95
2019-03-30T18:24:53.038Z,23.87
2019-03-30T18:27:21.487Z,27.45
2019-03-30T18:29:49.981Z,27.52
2019-03-30T18:32:21.360Z,27.35
2019-03-30T18:34:51.103Z,46.05
2019-03-30T18:37:20.275Z,34.95
2019-03-30T18:39:48.899Z,29.23
2019-03-30T18:42:17.352Z,33.92
2019-03-30T18:44:46.578Z,31.62
2019-03-30T18:47:15.089Z,27.95
2019-03-30T18:49:43.538Z,27.02
2019-03-30T18:52:12.914Z,25.20
2019-03-30T18:54:42.041Z,27.42
2019-03-30T18:57:10.510Z,40.65
2019-03-30T18:59:39.571Z,48.78
2019-03-30T19:02:08.079Z,45.83
2019-03-30T19:04:36.614Z,69.80
2019-03-30T19:07:05.164Z,58.55
2019-03-30T19:09:33.637Z,39.17
2019-03-30T19:12:02.201Z,42.25
2019-03-30T19:14:30.652Z,42.20
2019-03-30T19:16:59.131Z,45.48
2019-03-30T19:19:27.621Z,39.67
2019-03-30T19:21:56.189Z,41.33
2019-03-30T19:24:24.682Z,40.35
2019-03-30T19:26:53.215Z,37.50
2019-03-30T19:29:21.705Z,32.93
2019-03-30T19:31:51.005Z,38.90
2019-03-30T19:34:19.494Z,37.17
2019-03-30T19:36:47.943Z,30.32
2019-03-30T19:39:16.433Z,33.42
2019-03-30T19:41:44.894Z,37.90
2019-03-30T19:44:13.375Z,35.63
2019-03-30T19:46:41.894Z,35.47
2019-03-30T19:49:10.387Z,34.73
2019-03-30T19:51:38.863Z,32.53
2019-03-30T19:54:07.344Z,34.97
2019-03-30T19:56:35.789Z,41.40
2019-03-30T19:59:10.597Z,42.97
2019-03-30T20:01:34.800Z,47.00
2019-03-30T20:04:03.255Z,39.07
2019-03-30T20:06:31.800Z,39.83
2019-03-30T20:09:00.276Z,39.93
2019-03-30T20:11:28.757Z,37.17
2019-03-30T20:13:57.241Z,36.63
2019-03-30T20:16:25.718Z,39.87
2019-03-30T20:19:10.976Z,41.60
2019-03-30T20:21:24.390Z,38.00
2019-03-30T20:23:52.877Z,42.33
2019-03-30T20:26:21.466Z,40.13
2019-03-30T20:28:49.948Z,41.10
2019-03-30T20:31:18.438Z,43.40
2019-03-30T20:33:46.882Z,41.53
2019-03-30T20:36:15.409Z,40.70
2019-03-30T20:38:43.900Z,41.53
2019-03-30T20:41:12.339Z,42.00
2019-03-30T20:43:40.830Z,37.07
2019-03-30T20:46:09.409Z,37.27
2019-03-30T20:48:37.989Z,39.80
2019-03-30T20:51:06.503Z,38.20
2019-03-30T20:53:34.983Z,39.43
2019-03-30T20:56:03.473Z,40.83
2019-03-30T20:58:31.922Z,41.57
2019-03-30T21:01:00.406Z,37.23
2019-03-30T21:03:28.865Z,36.17
2019-03-30T21:05:57.322Z,38.77
2019-03-30T21:08:25.811Z,35.10
2019-03-30T21:10:54.260Z,39.23
2019-03-30T21:13:22.739Z,36.10
2019-03-30T21:15:51.191Z,42.10
2019-03-30T21:18:19.678Z,44.90
2019-03-30T21:20:48.146Z,41.43
2019-03-30T21:23:16.599Z,40.70
2019-03-30T21:25:45.083Z,36.50
2019-03-30T21:28:13.528Z,37.07
2019-03-30T21:30:42.011Z,33.37
2019-03-30T21:33:10.460Z,37.50
2019-03-30T21:35:38.935Z,35.40
2019-03-30T21:38:07.404Z,34.40
2019-03-30T21:40:36.042Z,39.10
2019-03-30T21:43:04.584Z,36.83
2019-03-30T21:45:33.047Z,35.73
2019-03-30T21:48:01.494Z,39.07
2019-03-30T21:50:29.980Z,37.13
2019-03-30T21:52:58.426Z,37.07
2019-03-30T21:55:26.911Z,37.20
2019-03-30T21:57:55.610Z,36.73
2019-03-30T22:00:34.532Z,39.57
2019-03-30T22:03:03.098Z,37.80
2019-03-30T22:05:32.079Z,40.13
2019-03-30T22:08:00.603Z,40.47
2019-03-30T22:10:29.228Z,43.53
2019-03-30T22:12:57.735Z,45.73
2019-03-30T22:15:27.750Z,40.60
2019-03-30T22:17:56.731Z,44.77
2019-03-30T22:20:25.620Z,45.60
2019-03-30T22:22:54.176Z,41.53
2019-03-30T22:25:22.639Z,44.53
2019-03-30T22:27:51.127Z,44.80
2019-03-30T22:30:25.007Z,44.17
2019-03-30T22:32:49.832Z,43.23
2019-03-30T22:35:18.272Z,45.60
2019-03-30T22:37:46.761Z,44.03
2019-03-30T22:40:15.383Z,44.57
2019-03-30T22:42:43.837Z,47.50
2019-03-30T22:45:12.430Z,41.93
2019-03-30T22:47:40.907Z,42.83
2019-03-30T22:50:09.996Z,43.23
2019-03-30T22:52:38.511Z,47.07
2019-03-30T22:55:07.607Z,42.67
2019-03-30T22:57:36.147Z,41.93
2019-03-30T23:00:10.999Z,41.17
2019-03-30T23:02:40.521Z,44.80
2019-03-30T23:05:09.549Z,41.90
2019-03-30T23:07:38.110Z,45.10
2019-03-30T23:10:07.398Z,45.07
2019-03-30T23:12:35.874Z,44.40
2019-03-30T23:15:04.668Z,44.23
2019-03-30T23:17:33.302Z,50.33
2019-03-30T23:20:01.746Z,42.87
2019-03-30T23:22:30.234Z,48.07
2019-03-30T23:24:58.685Z,51.70
2019-03-30T23:27:27.163Z,53.37
2019-03-30T23:29:55.610Z,49.27
2019-03-30T23:32:24.086Z,45.77
2019-03-30T23:34:52.566Z,45.83
2019-03-30T23:37:21.042Z,44.83
2019-03-30T23:39:49.506Z,50.90
2019-03-30T23:42:17.990Z,44.97
2019-03-30T23:44:47.051Z,55.73
2019-03-30T23:47:15.527Z,53.07
2019-03-30T23:49:43.988Z,53.77
2019-03-30T23:52:12.470Z,49.13
2019-03-30T23:54:40.936Z,49.10
2019-03-30T23:57:09.407Z,51.40
2019-03-30T23:59:37.879Z,50.63
